createdAt,value
2019-05-22T00:01:01.501Z,11.57
2019-05-22T00:03:48.731Z,10.10
2019-05-22T00:06:19.706Z,11.07
2019-05-22T00:08:49.899Z,11.53
2019-05-22T00:11:21.357Z,11.00
2019-05-22T00:13:51.058Z,12.63
2019-05-22T00:16:20.653Z,11.17
2019-05-22T00:18:50.450Z,10.67
2019-05-22T00:21:20.929Z,11.43
2019-05-22T00:23:52.368Z,12.13
2019-05-22T00:26:21.945Z,10.73
2019-05-22T00:28:51.530Z,13.03
2019-05-22T00:31:20.515Z,11.20
2019-05-22T00:33:50.398Z,10.10
2019-05-22T00:36:20.660Z,11.00
2019-05-22T00:38:51.232Z,11.47
2019-05-22T00:41:22.647Z,10.73
2019-05-22T00:43:53.364Z,11.77
2019-05-22T00:46:23.982Z,13.07
2019-05-22T00:48:54.167Z,10.80
2019-05-22T00:51:24.772Z,12.50
2019-05-22T00:53:55.337Z,11.90
2019-05-22T00:56:43.950Z,11.33
2019-05-22T00:59:16.224Z,12.67
2019-05-22T01:01:49.559Z,10.77
2019-05-22T01:04:39.115Z,11.40
2019-05-22T01:07:17.981Z,11.67
2019-05-22T01:09:48.255Z,15.07
2019-05-22T01:12:19.812Z,13.73
2019-05-22T01:14:50.303Z,12.93
2019-05-22T01:17:21.454Z,12.90
2019-05-22T01:19:51.932Z,13.23
2019-05-22T01:22:22.690Z,13.97
2019-05-22T01:24:53.645Z,16.23
2019-05-22T01:27:23.350Z,15.57
2019-05-22T01:29:53.959Z,13.70
2019-05-22T01:32:24.943Z,16.33
2019-05-22T01:34:54.233Z,15.77
2019-05-22T01:37:26.302Z,17.23
2019-05-22T01:39:58.413Z,15.97
2019-05-22T01:42:31.583Z,16.33
2019-05-22T01:45:06.588Z,16.10
2019-05-22T01:47:43.456Z,18.27
2019-05-22T01:50:15.731Z,18.90
2019-05-22T01:52:45.935Z,19.77
2019-05-22T01:55:18.123Z,19.00
2019-05-22T01:57:47.111Z,18.63
2019-05-22T02:00:16.716Z,18.47
2019-05-22T02:02:47.688Z,18.80
2019-05-22T02:05:16.746Z,19.23
2019-05-22T02:07:45.651Z,16.43
2019-05-22T02:10:17.800Z,20.30
2019-05-22T02:12:49.975Z,18.27
2019-05-22T02:15:19.616Z,20.97
2019-05-22T02:17:49.287Z,16.13
2019-05-22T02:20:19.490Z,18.67
2019-05-22T02:22:49.912Z,19.07
2019-05-22T02:25:20.199Z,20.20
2019-05-22T02:27:50.934Z,19.93
2019-05-22T02:30:22.968Z,17.33
2019-05-22T02:32:53.414Z,18.63
2019-05-22T02:35:25.253Z,19.57
2019-05-22T02:37:54.807Z,18.90
2019-05-22T02:40:28.657Z,19.10
2019-05-22T02:42:57.876Z,19.50
2019-05-22T02:45:27.386Z,18.43
2019-05-22T02:47:57.099Z,19.03
2019-05-22T02:50:27.456Z,20.10
2019-05-22T02:52:57.243Z,19.60
2019-05-22T02:55:27.193Z,17.63
2019-05-22T02:57:56.678Z,18.53
2019-05-22T03:00:27.009Z,18.73
2019-05-22T03:02:57.465Z,18.07
2019-05-22T03:05:26.944Z,19.27
2019-05-22T03:07:57.414Z,18.37
2019-05-22T03:10:28.452Z,19.43
2019-05-22T03:12:58.252Z,21.13
2019-05-22T03:15:28.212Z,19.40
2019-05-22T03:18:02.517Z,18.47
2019-05-22T03:20:33.500Z,16.67
2019-05-22T03:23:06.931Z,20.20
2019-05-22T03:25:36.136Z,18.37
2019-05-22T03:28:05.696Z,17.73
2019-05-22T03:30:37.103Z,19.43
2019-05-22T03:33:07.946Z,17.20
2019-05-22T03:35:42.450Z,16.67
2019-05-22T03:38:12.446Z,16.53
2019-05-22T03:40:42.192Z,17.17
2019-05-22T03:43:13.488Z,16.87
2019-05-22T03:45:43.239Z,15.83
2019-05-22T03:48:12.772Z,16.57
2019-05-22T03:50:43.302Z,15.97
2019-05-22T03:53:17.903Z,19.13
2019-05-22T03:55:48.628Z,16.07
2019-05-22T03:58:18.632Z,17.80
2019-05-22T04:00:49.624Z,15.13
2019-05-22T04:03:19.270Z,15.27
2019-05-22T04:05:48.628Z,17.20
2019-05-22T04:08:19.713Z,14.97
2019-05-22T04:10:50.314Z,15.10
2019-05-22T04:13:19.297Z,16.87
2019-05-22T04:15:49.631Z,15.10
2019-05-22T04:18:22.860Z,14.77
2019-05-22T04:20:50.937Z,16.80
2019-05-22T04:23:20.192Z,15.43
2019-05-22T04:25:53.338Z,16.80
2019-05-22T04:28:20.959Z,17.67
2019-05-22T04:30:50.745Z,16.03
2019-05-22T04:33:19.738Z,15.17
2019-05-22T04:35:49.064Z,15.90
2019-05-22T04:38:18.508Z,15.67
2019-05-22T04:40:48.890Z,15.83
2019-05-22T04:43:20.711Z,16.20
2019-05-22T04:45:51.161Z,16.63
2019-05-22T04:48:20.103Z,18.57
2019-05-22T04:50:49.992Z,17.83
2019-05-22T04:53:20.218Z,17.63
2019-05-22T04:55:49.827Z,19.57
2019-05-22T04:58:21.799Z,17.50
2019-05-22T05:00:50.810Z,18.90
2019-05-22T05:03:20.817Z,17.00
2019-05-22T05:05:52.559Z,19.93
2019-05-22T05:08:21.607Z,19.37
2019-05-22T05:10:55.303Z,19.33
2019-05-22T05:13:24.402Z,18.27
2019-05-22T05:15:55.295Z,19.13
2019-05-22T05:18:24.631Z,18.87
2019-05-22T05:20:54.832Z,20.07
2019-05-22T05:23:23.912Z,17.50
2019-05-22T05:25:53.278Z,19.47
2019-05-22T05:28:23.680Z,20.87
2019-05-22T05:30:52.749Z,21.87
2019-05-22T05:33:22.541Z,21.50
2019-05-22T05:35:51.802Z,20.53
2019-05-22T05:38:23.141Z,21.93
2019-05-22T05:40:52.400Z,21.90
2019-05-22T05:43:23.343Z,20.87
2019-05-22T05:45:52.649Z,22.80
2019-05-22T05:48:22.085Z,19.60
2019-05-22T05:51:08.259Z,20.87
2019-05-22T05:53:56.834Z,20.73
2019-05-22T05:56:26.882Z,21.37
2019-05-22T05:58:57.352Z,23.47
2019-05-22T06:01:28.114Z,22.37
2019-05-22T06:03:58.624Z,19.93
2019-05-22T06:06:30.896Z,22.83
2019-05-22T06:09:00.388Z,20.57
2019-05-22T06:11:33.807Z,20.13
2019-05-22T06:14:05.855Z,20.37
2019-05-22T06:16:48.800Z,20.87
2019-05-22T06:19:18.273Z,21.57
2019-05-22T06:21:48.854Z,15.67
2019-05-22T06:24:29.841Z,20.57
2019-05-22T06:26:59.991Z,22.60
2019-05-22T06:29:31.065Z,18.90
2019-05-22T06:32:05.777Z,20.40
2019-05-22T06:34:36.932Z,19.57
2019-05-22T06:37:11.984Z,20.17
2019-05-22T06:39:41.152Z,21.20
2019-05-22T06:42:10.309Z,19.57
2019-05-22T06:44:39.667Z,21.07
2019-05-22T06:47:11.957Z,20.17
2019-05-22T06:49:41.711Z,22.13
2019-05-22T06:52:10.784Z,17.63
2019-05-22T06:54:40.363Z,19.20
2019-05-22T06:57:11.665Z,19.10
2019-05-22T06:59:41.840Z,18.23
2019-05-22T07:02:12.580Z,18.13
2019-05-22T07:04:41.627Z,20.43
2019-05-22T07:07:12.417Z,18.13
2019-05-22T07:09:43.248Z,18.50
2019-05-22T07:12:14.115Z,20.47
2019-05-22T07:14:46.500Z,17.90
2019-05-22T07:17:18.275Z,17.70
2019-05-22T07:19:48.750Z,16.60
2019-05-22T07:22:19.569Z,18.00
2019-05-22T07:24:48.724Z,18.50
2019-05-22T07:27:21.186Z,17.90
2019-05-22T07:29:50.351Z,17.97
2019-05-22T07:32:22.179Z,16.00
2019-05-22T07:34:52.113Z,16.30
2019-05-22T07:37:21.869Z,15.67
2019-05-22T07:39:51.451Z,15.10
2019-05-22T07:42:22.668Z,12.37
2019-05-22T07:44:52.469Z,14.23
2019-05-22T07:47:22.891Z,12.37
2019-05-22T07:49:52.149Z,14.50
2019-05-22T07:52:21.414Z,14.10
2019-05-22T07:54:52.038Z,12.90
2019-05-22T07:57:22.671Z,14.17
2019-05-22T07:59:51.969Z,13.53
2019-05-22T08:02:23.102Z,14.03
2019-05-22T08:04:52.826Z,14.40
2019-05-22T08:07:23.537Z,12.20
2019-05-22T08:09:52.611Z,13.20
2019-05-22T08:12:22.929Z,15.23
2019-05-22T08:14:51.915Z,13.63
2019-05-22T08:17:21.012Z,13.30
2019-05-22T08:19:50.084Z,14.87
2019-05-22T08:22:19.146Z,13.00
2019-05-22T08:24:48.690Z,13.43
2019-05-22T08:27:19.744Z,14.20
2019-05-22T08:29:49.033Z,12.30
2019-05-22T08:32:18.399Z,15.57
2019-05-22T08:34:47.392Z,14.07
2019-05-22T08:37:17.628Z,13.67
2019-05-22T08:39:46.889Z,14.07
2019-05-22T08:42:17.739Z,14.13
2019-05-22T08:44:46.940Z,15.10
2019-05-22T08:47:16.351Z,15.17
2019-05-22T08:49:46.992Z,14.83
2019-05-22T08:52:23.465Z,14.47
2019-05-22T08:54:47.173Z,13.27
2019-05-22T08:57:18.586Z,16.80
2019-05-22T08:59:47.585Z,15.47
2019-05-22T09:02:17.967Z,16.20
2019-05-22T09:04:46.998Z,15.40
2019-05-22T09:07:16.628Z,16.90
2019-05-22T09:09:45.569Z,17.27
2019-05-22T09:12:16.483Z,15.07
2019-05-22T09:14:45.462Z,17.27
2019-05-22T09:17:14.636Z,18.00
2019-05-22T09:19:43.581Z,15.63
2019-05-22T09:22:13.286Z,16.80
2019-05-22T09:24:43.134Z,16.73
2019-05-22T09:27:12.346Z,15.70
2019-05-22T09:29:41.377Z,17.17
2019-05-22T09:32:11.329Z,16.27
2019-05-22T09:34:40.614Z,16.50
2019-05-22T09:37:10.924Z,17.37
2019-05-22T09:39:39.908Z,17.53
2019-05-22T09:42:08.882Z,15.60
2019-05-22T09:44:38.136Z,13.77
2019-05-22T09:47:08.350Z,14.97
2019-05-22T09:49:37.600Z,14.33
2019-05-22T09:52:07.698Z,15.67
2019-05-22T09:54:39.245Z,14.87
2019-05-22T09:57:08.853Z,16.13
2019-05-22T09:59:37.845Z,14.00
2019-05-22T10:02:07.555Z,14.67
2019-05-22T10:04:37.844Z,15.20
2019-05-22T10:07:07.913Z,14.90
2019-05-22T10:09:37.243Z,13.83
2019-05-22T10:12:07.883Z,14.90
2019-05-22T10:14:37.597Z,14.17
2019-05-22T10:17:08.607Z,14.47
2019-05-22T10:19:38.403Z,13.87
2019-05-22T10:22:10.253Z,14.63
2019-05-22T10:24:39.908Z,12.27
2019-05-22T10:27:09.023Z,13.93
2019-05-22T10:29:38.390Z,12.73
2019-05-22T10:32:07.724Z,13.00
2019-05-22T10:34:36.761Z,13.87
2019-05-22T10:37:06.808Z,13.03
2019-05-22T10:39:36.693Z,12.30
2019-05-22T10:42:05.683Z,13.07
2019-05-22T10:44:34.791Z,11.83
2019-05-22T10:47:04.323Z,11.13
2019-05-22T10:49:33.344Z,13.77
2019-05-22T10:52:02.434Z,13.13
2019-05-22T10:54:31.495Z,12.67
2019-05-22T10:57:02.099Z,12.03
2019-05-22T10:59:31.375Z,12.93
2019-05-22T11:02:00.618Z,12.93
2019-05-22T11:04:30.711Z,15.47
2019-05-22T11:07:00.437Z,12.67
2019-05-22T11:09:30.637Z,12.50
2019-05-22T11:12:01.431Z,13.40
2019-05-22T11:14:31.203Z,13.60
2019-05-22T11:17:01.542Z,13.63
2019-05-22T11:19:32.614Z,12.33
2019-05-22T11:22:02.177Z,13.97
2019-05-22T11:24:31.210Z,14.67
2019-05-22T11:27:00.151Z,14.23
2019-05-22T11:29:29.645Z,14.20
2019-05-22T11:31:59.684Z,14.33
2019-05-22T11:34:29.652Z,13.10
2019-05-22T11:36:58.915Z,15.87
2019-05-22T11:39:38.494Z,13.50
2019-05-22T11:42:00.358Z,12.57
2019-05-22T11:44:29.923Z,13.30
2019-05-22T11:46:59.502Z,13.87
2019-05-22T11:49:29.562Z,13.07
2019-05-22T11:51:58.640Z,12.33
2019-05-22T11:54:28.264Z,13.97
2019-05-22T11:56:58.635Z,13.73
2019-05-22T11:59:28.112Z,14.13
2019-05-22T12:01:58.987Z,13.57
2019-05-22T12:04:45.733Z,13.93
2019-05-22T12:07:00.421Z,13.60
2019-05-22T12:09:30.704Z,14.70
2019-05-22T12:12:00.205Z,11.93
2019-05-22T12:14:29.273Z,13.47
2019-05-22T12:16:58.228Z,13.53
2019-05-22T12:19:27.945Z,12.07
2019-05-22T12:21:57.255Z,12.57
2019-05-22T12:24:30.198Z,12.70
2019-05-22T12:26:56.934Z,11.23
2019-05-22T12:29:27.730Z,11.57
2019-05-22T12:31:57.060Z,13.17
2019-05-22T12:34:26.093Z,11.73
2019-05-22T12:36:55.193Z,11.83
2019-05-22T12:39:25.030Z,10.13
2019-05-22T12:41:54.290Z,12.80
2019-05-22T12:44:23.795Z,14.57
2019-05-22T12:46:53.231Z,12.07
2019-05-22T12:49:23.707Z,11.70
2019-05-22T12:51:53.248Z,10.27
2019-05-22T12:54:23.821Z,11.47
2019-05-22T12:56:52.934Z,12.53
2019-05-22T12:59:23.639Z,13.43
2019-05-22T13:01:52.946Z,10.67
2019-05-22T13:11:27.230Z,11.27
2019-05-22T13:13:56.269Z,12.03
2019-05-22T13:16:25.647Z,11.53
2019-05-22T13:18:57.201Z,13.53
2019-05-22T13:21:30.180Z,11.00
2019-05-22T13:24:00.513Z,11.03
2019-05-22T13:26:30.073Z,11.17
2019-05-22T13:28:59.641Z,11.03
2019-05-22T13:31:30.858Z,11.40
2019-05-22T13:34:02.234Z,10.80
2019-05-22T13:36:33.078Z,11.20
2019-05-22T13:39:05.187Z,9.13
2019-05-22T13:41:35.298Z,12.40
2019-05-22T13:44:05.780Z,11.33
2019-05-22T13:46:35.090Z,10.90
2019-05-22T13:52:22.172Z,11.13
2019-05-22T13:54:51.677Z,9.83
2019-05-22T13:57:21.485Z,9.47
2019-05-22T14:06:14.153Z,9.23
2019-05-22T14:08:43.409Z,10.00
2019-05-22T14:11:12.437Z,10.33
2019-05-22T14:13:42.337Z,10.03
2019-05-22T14:16:11.629Z,9.93
2019-05-22T14:18:42.170Z,9.47
2019-05-22T14:21:14.570Z,9.47
2019-05-22T14:27:00.898Z,7.77
2019-05-22T14:29:29.911Z,8.57
2019-05-22T14:31:59.341Z,11.13
2019-05-22T14:34:28.853Z,8.60
2019-05-22T14:43:31.690Z,8.60
2019-05-22T14:46:03.710Z,8.10
2019-05-22T14:48:33.516Z,8.87
2019-05-22T14:51:04.254Z,11.67
2019-05-22T14:53:36.917Z,9.27
2019-05-22T14:56:10.595Z,9.23
2019-05-22T14:58:39.355Z,10.40
2019-05-22T15:01:09.856Z,9.53
2019-05-22T15:06:57.135Z,8.70
2019-05-22T15:09:26.350Z,8.47
2019-05-22T15:11:55.997Z,9.07
2019-05-22T15:14:25.628Z,9.30
2019-05-22T15:16:55.980Z,8.93
2019-05-22T15:19:26.820Z,10.67
2019-05-22T15:21:56.347Z,9.33
2019-05-22T15:24:25.983Z,9.33
2019-05-22T15:26:57.243Z,8.83
2019-05-22T15:29:26.919Z,8.60
2019-05-22T15:31:56.271Z,9.43
2019-05-22T15:34:29.263Z,10.20
2019-05-22T15:36:59.814Z,10.47
2019-05-22T15:39:30.643Z,8.93
2019-05-22T15:42:02.054Z,8.87
2019-05-22T15:44:31.525Z,9.77
2019-05-22T15:47:01.003Z,9.73
2019-05-22T15:49:30.111Z,9.23
2019-05-22T15:52:01.142Z,9.57
2019-05-22T15:54:34.057Z,8.43
2019-05-22T15:57:05.150Z,9.37
2019-05-22T15:59:35.210Z,8.40
2019-05-22T16:02:06.222Z,8.33
2019-05-22T16:04:38.688Z,9.13
2019-05-22T16:07:09.769Z,8.43
2019-05-22T16:09:40.671Z,8.50
2019-05-22T16:12:10.622Z,10.23
2019-05-22T16:14:39.782Z,9.03
2019-05-22T16:17:09.747Z,8.60
2019-05-22T16:19:40.920Z,9.70
2019-05-22T16:22:10.027Z,10.83
2019-05-22T16:24:40.189Z,9.03
2019-05-22T16:30:26.439Z,7.63
2019-05-22T16:32:56.681Z,7.70
2019-05-22T16:35:26.026Z,9.60
2019-05-22T16:37:56.640Z,8.60
2019-05-22T16:40:27.531Z,7.77
2019-05-22T16:46:20.504Z,9.17
2019-05-22T16:48:50.345Z,9.13
2019-05-22T16:57:54.707Z,8.57
2019-05-22T17:00:24.524Z,8.77
2019-05-22T17:02:53.659Z,7.70
2019-05-22T17:08:40.990Z,8.10
2019-05-22T17:11:12.806Z,9.23
2019-05-22T17:13:43.075Z,8.27
2019-05-22T17:16:12.909Z,8.10
2019-05-22T17:18:51.462Z,8.43
2019-05-22T17:21:21.553Z,8.73
2019-05-22T17:23:52.291Z,7.87
2019-05-22T17:26:21.513Z,8.00
2019-05-22T17:35:07.518Z,8.10
2019-05-22T17:37:37.299Z,7.90
2019-05-22T17:40:08.524Z,9.80
2019-05-22T17:42:38.029Z,8.07
2019-05-22T17:45:11.456Z,10.57
2019-05-22T17:47:43.707Z,9.97
2019-05-22T17:50:26.134Z,7.97
2019-05-22T17:52:45.868Z,7.73
2019-05-22T17:55:16.194Z,7.77
2019-05-22T17:57:45.369Z,7.63
2019-05-22T18:00:29.222Z,7.23
2019-05-22T18:02:59.146Z,8.80
2019-05-22T18:05:29.208Z,7.57
2019-05-22T18:07:59.430Z,7.43
2019-05-22T18:10:31.466Z,10.63
2019-05-22T18:13:04.357Z,9.50
2019-05-22T18:15:33.768Z,8.80
2019-05-22T18:18:05.195Z,9.37
2019-05-22T18:20:43.082Z,8.13
2019-05-22T18:23:07.513Z,8.07
2019-05-22T18:25:37.256Z,9.63
2019-05-22T18:28:10.214Z,7.87
2019-05-22T18:30:41.159Z,7.83
2019-05-22T18:33:10.415Z,7.60
2019-05-22T18:35:42.055Z,8.67
2019-05-22T18:38:11.211Z,8.07
2019-05-22T18:40:42.529Z,8.27
2019-05-22T18:43:11.591Z,11.33
2019-05-22T18:45:40.655Z,8.57
2019-05-22T18:48:09.678Z,10.03
2019-05-22T18:50:39.444Z,7.87
2019-05-22T18:53:08.545Z,9.17
2019-05-22T18:55:37.801Z,8.03
2019-05-22T18:58:08.328Z,7.90
2019-05-22T19:00:37.621Z,8.07
2019-05-22T19:03:10.638Z,7.40
2019-05-22T19:05:40.191Z,8.67
2019-05-22T19:08:09.426Z,7.50
2019-05-22T19:10:39.113Z,8.43
2019-05-22T19:13:08.189Z,8.30
2019-05-22T19:15:37.354Z,7.50
2019-05-22T19:18:06.349Z,7.80
2019-05-22T19:20:35.328Z,8.73
2019-05-22T19:23:08.719Z,9.37
2019-05-22T19:25:38.064Z,8.63
2019-05-22T19:28:07.694Z,8.03
2019-05-22T19:30:37.314Z,7.73
2019-05-22T19:33:08.034Z,8.23
2019-05-22T19:35:37.023Z,7.73
2019-05-22T19:38:06.036Z,7.23
2019-05-22T19:40:36.893Z,7.70
2019-05-22T19:43:06.875Z,7.53
2019-05-22T19:45:36.609Z,7.60
2019-05-22T19:48:08.528Z,8.03
2019-05-22T19:50:38.027Z,8.77
2019-05-22T19:53:18.794Z,8.73
2019-05-22T19:55:41.486Z,8.53
2019-05-22T19:58:10.645Z,8.07
2019-05-22T20:00:39.765Z,8.10
2019-05-22T20:03:09.039Z,7.30
2019-05-22T20:05:39.667Z,7.90
2019-05-22T20:08:08.864Z,9.27
2019-05-22T20:10:38.508Z,9.30
2019-05-22T20:13:07.839Z,9.17
2019-05-22T20:15:38.485Z,7.70
2019-05-22T20:18:08.658Z,7.97
2019-05-22T20:20:38.538Z,9.60
2019-05-22T20:23:09.664Z,8.47
2019-05-22T20:25:39.066Z,8.00
2019-05-22T20:28:09.449Z,8.47
2019-05-22T20:30:38.681Z,7.93
2019-05-22T20:33:09.107Z,10.27
2019-05-22T20:35:39.443Z,7.73
2019-05-22T20:38:09.349Z,7.27
2019-05-22T20:40:38.490Z,8.53
2019-05-22T20:43:08.751Z,7.57
2019-05-22T20:45:41.064Z,7.10
2019-05-22T20:48:12.220Z,7.93
2019-05-22T20:50:41.609Z,9.93
2019-05-22T20:53:13.217Z,8.00
2019-05-22T20:55:42.461Z,8.27
2019-05-22T20:58:11.568Z,8.37
2019-05-22T21:00:41.619Z,8.37
2019-05-22T21:03:11.154Z,7.87
2019-05-22T21:05:41.886Z,7.70
2019-05-22T21:08:12.459Z,9.87
2019-05-22T21:13:59.161Z,7.93
2019-05-22T21:16:32.404Z,8.70
2019-05-22T21:19:02.709Z,9.20
2019-05-22T21:21:32.249Z,9.80
2019-05-22T21:24:09.899Z,11.60
2019-05-22T21:26:33.316Z,8.90
2019-05-22T21:29:04.029Z,8.93
2019-05-22T21:31:33.101Z,9.10
2019-05-22T21:34:03.060Z,9.37
2019-05-22T21:36:32.255Z,10.70
2019-05-22T21:39:01.638Z,8.33
2019-05-22T21:41:31.776Z,10.03
2019-05-22T21:44:00.716Z,8.33
2019-05-22T21:49:44.447Z,9.23
2019-05-22T21:52:14.405Z,9.33
2019-05-22T21:54:43.528Z,9.87
2019-05-22T22:03:34.981Z,8.87
2019-05-22T22:06:05.631Z,9.97
2019-05-22T22:08:35.382Z,7.77
2019-05-22T22:11:05.467Z,7.90
2019-05-22T22:13:34.780Z,8.20
2019-05-22T22:16:04.304Z,8.70
2019-05-22T22:18:34.083Z,8.33
2019-05-22T22:21:03.445Z,8.73
2019-05-22T22:23:33.132Z,8.63
2019-05-22T22:26:02.168Z,9.30
2019-05-22T22:28:31.166Z,8.47
2019-05-22T22:31:03.520Z,10.47
2019-05-22T22:33:35.899Z,9.03
2019-05-22T22:36:06.324Z,8.40
2019-05-22T22:38:37.825Z,8.57
2019-05-22T22:41:08.687Z,9.57
2019-05-22T22:43:39.634Z,7.53
2019-05-22T22:46:23.747Z,8.70
2019-05-22T22:48:55.031Z,7.37
2019-05-22T22:51:24.632Z,9.27
2019-05-22T22:53:55.794Z,8.60
2019-05-22T22:56:26.816Z,8.70
2019-05-22T22:58:56.642Z,8.50
2019-05-22T23:01:29.191Z,7.90
2019-05-22T23:04:01.976Z,8.20
2019-05-22T23:06:36.134Z,7.90
2019-05-22T23:09:04.528Z,7.40
2019-05-22T23:11:34.011Z,7.83
2019-05-22T23:14:04.719Z,7.67
2019-05-22T23:16:34.770Z,7.03
2019-05-22T23:19:11.553Z,7.77
2019-05-22T23:21:40.595Z,9.70
2019-05-22T23:24:11.616Z,8.87
2019-05-22T23:26:41.555Z,7.67
2019-05-22T23:29:11.540Z,6.33
2019-05-22T23:31:41.363Z,7.43
2019-05-22T23:34:13.562Z,7.33
2019-05-22T23:36:43.732Z,8.60
2019-05-22T23:39:15.051Z,7.67
2019-05-22T23:41:45.058Z,7.40
2019-05-22T23:44:16.072Z,7.60
2019-05-22T23:46:46.191Z,8.23
2019-05-22T23:49:15.769Z,6.83
2019-05-22T23:51:45.191Z,7.60
2019-05-22T23:54:14.479Z,7.50
2019-05-22T23:56:45.735Z,7.40
2019-05-22T23:59:16.573Z,7.20
